Time;durP1;ratioP1;P1;durP2;ratioP2;P2;SDS_P1;SDS_P2;PMS_P1;PMS_P2;Temp;Humidity;BMP_temperature;BMP_pressure;BME280_temperature;BME280_humidity;BME280_pressure;Samples;Min_cycle;Max_cycle;Signal;HPM_P1;HPM_P2
2019/05/23 00:00:51;;;;;;;27;18.75;;;;;;;7.78;100;95607.4;;;;
2019/05/23 00:02:56;;;;;;;27;18.75;;;;;;;7.78;100;95607.4;;;;
2019/05/23 00:04:04;;;;;;;32.25;19.65;;;;;;;7.66;100;95602.76;;;;
2019/05/23 00:05:13;;;;;;;32.25;19.65;;;;;;;7.66;100;95602.76;;;;
2019/05/23 00:06:16;;;;;;;32.25;19.65;;;;;;;7.66;100;95602.76;;;;
2019/05/23 00:07:19;;;;;;;32.25;19.65;;;;;;;7.66;100;95602.76;;;;
2019/05/23 00:08:26;;;;;;;32.25;19.65;;;;;;;7.66;100;95602.76;;;;
2019/05/23 00:09:27;;;;;;;32.25;19.65;;;;;;;7.66;100;95602.76;;;;
2019/05/23 00:10:32;;;;;;;32.25;19.65;;;;;;;7.66;100;95602.76;;;;
2019/05/23 00:11:43;;;;;;;32.25;19.65;;;;;;;7.66;100;95602.76;;;;
2019/05/23 00:12:44;;;;;;;32.25;19.65;;;;;;;7.66;100;95602.76;;;;
2019/05/23 00:14:02;;;;;;;26.8;18.7;;;;;;;7.52;100;95601.26;;;;
2019/05/23 00:15:08;;;;;;;26.8;18.7;;;;;;;7.52;100;95601.26;;;;
2019/05/23 00:16:19;;;;;;;26.8;18.7;;;;;;;7.52;100;95601.26;;;;
2019/05/23 00:17:23;;;;;;;26.8;18.7;;;;;;;7.52;100;95601.26;;;;
2019/05/23 00:18:24;;;;;;;26.8;18.7;;;;;;;7.52;100;95601.26;;;;
2019/05/23 00:19:27;;;;;;;26.8;18.7;;;;;;;7.52;100;95601.26;;;;
2019/05/23 00:20:28;;;;;;;26.8;18.7;;;;;;;7.52;100;95601.26;;;;
2019/05/23 00:21:30;;;;;;;26.8;18.7;;;;;;;7.52;100;95601.26;;;;
2019/05/23 00:22:33;;;;;;;26.8;18.7;;;;;;;7.52;100;95601.26;;;;
2019/05/23 00:23:34;;;;;;;26.65;17.9;;;;;;;7.4;100;95594.35;;;;
2019/05/23 00:24:35;;;;;;;26.65;17.9;;;;;;;7.4;100;95594.35;;;;
2019/05/23 00:25:37;;;;;;;26.65;17.9;;;;;;;7.4;100;95594.35;;;;
2019/05/23 00:26:41;;;;;;;26.65;17.9;;;;;;;7.4;100;95594.35;;;;
2019/05/23 00:27:42;;;;;;;26.65;17.9;;;;;;;7.4;100;95594.35;;;;
2019/05/23 00:28:43;;;;;;;26.65;17.9;;;;;;;7.4;100;95594.35;;;;
2019/05/23 00:29:44;;;;;;;26.65;17.9;;;;;;;7.4;100;95594.35;;;;
2019/05/23 00:30:54;;;;;;;26.65;17.9;;;;;;;7.4;100;95594.35;;;;
2019/05/23 00:32:00;;;;;;;26.65;17.9;;;;;;;7.4;100;95594.35;;;;
2019/05/23 00:33:02;;;;;;;26.65;17.9;;;;;;;7.4;100;95594.35;;;;
2019/05/23 00:34:03;;;;;;;26.65;17.9;;;;;;;7.4;100;95594.35;;;;
2019/05/23 00:35:05;;;;;;;26.65;17.9;;;;;;;7.4;100;95594.35;;;;
2019/05/23 00:36:06;;;;;;;26.65;17.9;;;;;;;7.4;100;95594.35;;;;
2019/05/23 00:37:08;;;;;;;26.65;17.9;;;;;;;7.4;100;95594.35;;;;
2019/05/23 00:38:09;;;;;;;26.65;17.9;;;;;;;7.4;100;95594.35;;;;
2019/05/23 00:39:12;;;;;;;26.65;17.9;;;;;;;7.4;100;95594.35;;;;
2019/05/23 00:40:15;;;;;;;26.65;17.9;;;;;;;7.4;100;95594.35;;;;
2019/05/23 00:41:16;;;;;;;26.65;17.9;;;;;;;7.4;100;95594.35;;;;
2019/05/23 00:42:19;;;;;;;26.65;17.9;;;;;;;7.4;100;95594.35;;;;
2019/05/23 00:43:21;;;;;;;26.65;17.9;;;;;;;7.4;100;95594.35;;;;
2019/05/23 00:44:22;;;;;;;26.65;17.9;;;;;;;7.4;100;95594.35;;;;
2019/05/23 00:45:25;;;;;;;26.7;18.1;;;;;;;7.22;100;95586.52;;;;
2019/05/23 00:46:26;;;;;;;26.7;18.1;;;;;;;7.22;100;95586.52;;;;
2019/05/23 00:47:27;;;;;;;26.7;18.1;;;;;;;7.22;100;95586.52;;;;
2019/05/23 00:48:30;;;;;;;26.7;18.1;;;;;;;7.22;100;95586.52;;;;
2019/05/23 00:49:32;;;;;;;26.7;18.1;;;;;;;7.22;100;95586.52;;;;
2019/05/23 00:50:33;;;;;;;26.7;18.1;;;;;;;7.22;100;95586.52;;;;
2019/05/23 00:51:35;;;;;;;26.7;18.1;;;;;;;7.22;100;95586.52;;;;
2019/05/23 00:52:39;;;;;;;26.7;18.1;;;;;;;7.22;100;95586.52;;;;
2019/05/23 00:53:42;;;;;;;26.7;18.1;;;;;;;7.22;100;95586.52;;;;
2019/05/23 00:54:44;;;;;;;26.7;18.1;;;;;;;7.22;100;95586.52;;;;
2019/05/23 00:55:45;;;;;;;28.4;18.55;;;;;;;7.08;100;95588.49;;;;
2019/05/23 00:56:47;;;;;;;28.4;18.55;;;;;;;7.08;100;95588.49;;;;
2019/05/23 00:57:48;;;;;;;28.4;18.55;;;;;;;7.08;100;95588.49;;;;
2019/05/23 00:58:50;;;;;;;28.4;18.55;;;;;;;7.08;100;95588.49;;;;
2019/05/23 00:59:51;;;;;;;28.4;18.55;;;;;;;7.08;100;95588.49;;;;
2019/05/23 01:00:53;;;;;;;28.4;18.55;;;;;;;7.08;100;95588.49;;;;
2019/05/23 01:01:54;;;;;;;28.4;18.55;;;;;;;7.08;100;95588.49;;;;
2019/05/23 01:02:57;;;;;;;28.4;18.55;;;;;;;7.08;100;95588.49;;;;
2019/05/23 01:03:58;;;;;;;28.4;18.55;;;;;;;7.08;100;95588.49;;;;
2019/05/23 01:05:00;;;;;;;28.4;18.55;;;;;;;7.08;100;95588.49;;;;
2019/05/23 01:06:02;;;;;;;29.15;18.75;;;;;;;7.11;100;95588.99;;;;
2019/05/23 01:07:04;;;;;;;29.15;18.75;;;;;;;7.11;100;95588.99;;;;
2019/05/23 01:08:08;;;;;;;29.15;18.75;;;;;;;7.11;100;95588.99;;;;
2019/05/23 01:09:10;;;;;;;29.15;18.75;;;;;;;7.11;100;95588.99;;;;
2019/05/23 01:10:15;;;;;;;29.15;18.75;;;;;;;7.11;100;95588.99;;;;
2019/05/23 01:11:16;;;;;;;29.15;18.75;;;;;;;7.11;100;95588.99;;;;
2019/05/23 01:12:17;;;;;;;29.15;18.75;;;;;;;7.11;100;95588.99;;;;
2019/05/23 01:13:19;;;;;;;29.15;18.75;;;;;;;7.11;100;95588.99;;;;
2019/05/23 01:14:20;;;;;;;29.15;18.75;;;;;;;7.11;100;95588.99;;;;
2019/05/23 01:15:23;;;;;;;29.15;18.75;;;;;;;7.11;100;95588.99;;;;
2019/05/23 01:16:24;;;;;;;32.5;21.3;;;;;;;7.21;100;95592.52;;;;
2019/05/23 01:17:26;;;;;;;32.5;21.3;;;;;;;7.21;100;95592.52;;;;
2019/05/23 01:18:27;;;;;;;32.5;21.3;;;;;;;7.21;100;95592.52;;;;
2019/05/23 01:19:29;;;;;;;32.5;21.3;;;;;;;7.21;100;95592.52;;;;
2019/05/23 01:20:48;;;;;;;32.5;21.3;;;;;;;7.21;100;95592.52;;;;
2019/05/23 01:21:55;;;;;;;32.5;21.3;;;;;;;7.21;100;95592.52;;;;
2019/05/23 01:22:57;;;;;;;32.5;21.3;;;;;;;7.21;100;95592.52;;;;
2019/05/23 01:24:06;;;;;;;32.5;21.3;;;;;;;7.21;100;95592.52;;;;
2019/05/23 01:25:08;;;;;;;32.5;21.3;;;;;;;7.21;100;95592.52;;;;
2019/05/23 01:26:11;;;;;;;32.5;21.3;;;;;;;7.21;100;95592.52;;;;
2019/05/23 01:27:12;;;;;;;33.2;20.8;;;;;;;7.45;100;95582.87;;;;
2019/05/23 01:28:13;;;;;;;33.2;20.8;;;;;;;7.45;100;95582.87;;;;
2019/05/23 01:29:15;;;;;;;33.2;20.8;;;;;;;7.45;100;95582.87;;;;
2019/05/23 01:30:20;;;;;;;33.2;20.8;;;;;;;7.45;100;95582.87;;;;
2019/05/23 01:31:27;;;;;;;33.2;20.8;;;;;;;7.45;100;95582.87;;;;
2019/05/23 01:32:37;;;;;;;33.2;20.8;;;;;;;7.45;100;95582.87;;;;
2019/05/23 01:33:38;;;;;;;33.2;20.8;;;;;;;7.45;100;95582.87;;;;
2019/05/23 01:34:40;;;;;;;33.2;20.8;;;;;;;7.45;100;95582.87;;;;
2019/05/23 01:35:41;;;;;;;33.2;20.8;;;;;;;7.45;100;95582.87;;;;
2019/05/23 01:36:42;;;;;;;33.2;20.8;;;;;;;7.45;100;95582.87;;;;
2019/05/23 01:37:44;;;;;;;32.45;20.6;;;;;;;7.59;100;95579.66;;;;
2019/05/23 01:38:47;;;;;;;32.45;20.6;;;;;;;7.59;100;95579.66;;;;
2019/05/23 01:39:49;;;;;;;32.45;20.6;;;;;;;7.59;100;95579.66;;;;
2019/05/23 01:40:50;;;;;;;32.45;20.6;;;;;;;7.59;100;95579.66;;;;
2019/05/23 01:41:51;;;;;;;32.45;20.6;;;;;;;7.59;100;95579.66;;;;
2019/05/23 01:42:53;;;;;;;32.45;20.6;;;;;;;7.59;100;95579.66;;;;
2019/05/23 01:43:55;;;;;;;32.45;20.6;;;;;;;7.59;100;95579.66;;;;
2019/05/23 01:44:57;;;;;;;32.45;20.6;;;;;;;7.59;100;95579.66;;;;
2019/05/23 01:46:00;;;;;;;32.45;20.6;;;;;;;7.59;100;95579.66;;;;
2019/05/23 01:47:01;;;;;;;32.45;20.6;;;;;;;7.59;100;95579.66;;;;
2019/05/23 01:48:03;;;;;;;32.45;20.6;;;;;;;7.59;100;95579.66;;;;
2019/05/23 01:49:05;;;;;;;27.3;18.3;;;;;;;7.6;100;95583.47;;;;
2019/05/23 01:50:08;;;;;;;27.3;18.3;;;;;;;7.6;100;95583.47;;;;
2019/05/23 01:51:10;;;;;;;27.3;18.3;;;;;;;7.6;100;95583.47;;;;
2019/05/23 01:52:11;;;;;;;27.3;18.3;;;;;;;7.6;100;95583.47;;;;
2019/05/23 01:53:12;;;;;;;27.3;18.3;;;;;;;7.6;100;95583.47;;;;
2019/05/23 01:54:13;;;;;;;27.3;18.3;;;;;;;7.6;100;95583.47;;;;
2019/05/23 01:55:15;;;;;;;27.3;18.3;;;;;;;7.6;100;95583.47;;;;
2019/05/23 01:56:16;;;;;;;27.3;18.3;;;;;;;7.6;100;95583.47;;;;
2019/05/23 01:57:18;;;;;;;27.3;18.3;;;;;;;7.6;100;95583.47;;;;
2019/05/23 01:58:19;;;;;;;27.3;18.3;;;;;;;7.6;100;95583.47;;;;
2019/05/23 01:59:21;;;;;;;28.55;18.3;;;;;;;7.6;100;95591.63;;;;
2019/05/23 02:00:26;;;;;;;28.55;18.3;;;;;;;7.6;100;95591.63;;;;
2019/05/23 02:01:28;;;;;;;28.55;18.3;;;;;;;7.6;100;95591.63;;;;
2019/05/23 02:02:29;;;;;;;28.55;18.3;;;;;;;7.6;100;95591.63;;;;
2019/05/23 02:03:30;;;;;;;28.55;18.3;;;;;;;7.6;100;95591.63;;;;
2019/05/23 02:04:32;;;;;;;28.55;18.3;;;;;;;7.6;100;95591.63;;;;
2019/05/23 02:05:35;;;;;;;28.55;18.3;;;;;;;7.6;100;95591.63;;;;
2019/05/23 02:06:36;;;;;;;28.55;18.3;;;;;;;7.6;100;95591.63;;;;
2019/05/23 02:07:38;;;;;;;28.55;18.3;;;;;;;7.6;100;95591.63;;;;
2019/05/23 02:08:40;;;;;;;28.55;18.3;;;;;;;7.6;100;95591.63;;;;
2019/05/23 02:09:41;;;;;;;27.9;19.25;;;;;;;7.67;100;95584.79;;;;
2019/05/23 02:10:43;;;;;;;27.9;19.25;;;;;;;7.67;100;95584.79;;;;
2019/05/23 02:11:44;;;;;;;27.9;19.25;;;;;;;7.67;100;95584.79;;;;
2019/05/23 02:12:45;;;;;;;27.9;19.25;;;;;;;7.67;100;95584.79;;;;
2019/05/23 02:13:46;;;;;;;27.9;19.25;;;;;;;7.67;100;95584.79;;;;
2019/05/23 02:14:47;;;;;;;27.9;19.25;;;;;;;7.67;100;95584.79;;;;
2019/05/23 02:15:50;;;;;;;27.9;19.25;;;;;;;7.67;100;95584.79;;;;
2019/05/23 02:16:52;;;;;;;27.9;19.25;;;;;;;7.67;100;95584.79;;;;
2019/05/23 02:17:53;;;;;;;27.9;19.25;;;;;;;7.67;100;95584.79;;;;
2019/05/23 02:18:54;;;;;;;27.9;19.25;;;;;;;7.67;100;95584.79;;;;
2019/05/23 02:19:56;;;;;;;24.6;17.45;;;;;;;7.66;100;95585.3;;;;
2019/05/23 02:20:58;;;;;;;24.6;17.45;;;;;;;7.66;100;95585.3;;;;
2019/05/23 02:22:00;;;;;;;24.6;17.45;;;;;;;7.66;100;95585.3;;;;
2019/05/23 02:23:01;;;;;;;24.6;17.45;;;;;;;7.66;100;95585.3;;;;
2019/05/23 02:24:06;;;;;;;24.6;17.45;;;;;;;7.66;100;95585.3;;;;
2019/05/23 02:25:07;;;;;;;24.6;17.45;;;;;;;7.66;100;95585.3;;;;
2019/05/23 02:26:10;;;;;;;24.6;17.45;;;;;;;7.66;100;95585.3;;;;
2019/05/23 02:27:13;;;;;;;24.6;17.45;;;;;;;7.66;100;95585.3;;;;
2019/05/23 02:28:15;;;;;;;24.6;17.45;;;;;;;7.66;100;95585.3;;;;
2019/05/23 02:29:16;;;;;;;24.6;17.45;;;;;;;7.66;100;95585.3;;;;
2019/05/23 02:30:17;;;;;;;24.6;17.45;;;;;;;7.66;100;95585.3;;;;
2019/05/23 02:31:19;;;;;;;24.25;17.25;;;;;;;7.74;100;95583.33;;;;
2019/05/23 02:32:20;;;;;;;24.25;17.25;;;;;;;7.74;100;95583.33;;;;
2019/05/23 02:33:23;;;;;;;24.25;17.25;;;;;;;7.74;100;95583.33;;;;
2019/05/23 02:34:24;;;;;;;24.25;17.25;;;;;;;7.74;100;95583.33;;;;
2019/05/23 02:35:26;;;;;;;24.25;17.25;;;;;;;7.74;100;95583.33;;;;
2019/05/23 02:36:27;;;;;;;24.25;17.25;;;;;;;7.74;100;95583.33;;;;
2019/05/23 02:42:44;;;;;;;28.55;18.7;;;;;;;7.72;100;95579.1;;;;
2019/05/23 02:43:47;;;;;;;28.55;18.7;;;;;;;7.72;100;95579.1;;;;
2019/05/23 02:44:49;;;;;;;28.55;18.7;;;;;;;7.72;100;95579.1;;;;
2019/05/23 02:45:52;;;;;;;28.55;18.7;;;;;;;7.72;100;95579.1;;;;
2019/05/23 02:47:01;;;;;;;28.55;18.7;;;;;;;7.72;100;95579.1;;;;
2019/05/23 02:48:05;;;;;;;28.55;18.7;;;;;;;7.72;100;95579.1;;;;
2019/05/23 02:51:12;;;;;;;28.55;18.7;;;;;;;7.72;100;95579.1;;;;
2019/05/23 02:52:22;;;;;;;28.75;19.4;;;;;;;7.88;100;95582.65;;;;
2019/05/23 02:53:36;;;;;;;28.75;19.4;;;;;;;7.88;100;95582.65;;;;
2019/05/23 02:54:37;;;;;;;28.75;19.4;;;;;;;7.88;100;95582.65;;;;
2019/05/23 02:55:40;;;;;;;28.75;19.4;;;;;;;7.88;100;95582.65;;;;
2019/05/23 02:56:42;;;;;;;28.75;19.4;;;;;;;7.88;100;95582.65;;;;
2019/05/23 02:57:43;;;;;;;28.75;19.4;;;;;;;7.88;100;95582.65;;;;
2019/05/23 02:58:45;;;;;;;28.75;19.4;;;;;;;7.88;100;95582.65;;;;
2019/05/23 02:59:59;;;;;;;28.75;19.4;;;;;;;7.88;100;95582.65;;;;
2019/05/23 03:01:47;;;;;;;28.75;19.4;;;;;;;7.88;100;95582.65;;;;
2019/05/23 03:03:55;;;;;;;27.65;18.45;;;;;;;7.91;100;95572.81;;;;
2019/05/23 03:04:57;;;;;;;27.65;18.45;;;;;;;7.91;100;95572.81;;;;
2019/05/23 03:05:59;;;;;;;27.65;18.45;;;;;;;7.91;100;95572.81;;;;
2019/05/23 03:07:02;;;;;;;27.65;18.45;;;;;;;7.91;100;95572.81;;;;
2019/05/23 03:08:03;;;;;;;27.65;18.45;;;;;;;7.91;100;95572.81;;;;
2019/05/23 03:09:06;;;;;;;27.65;18.45;;;;;;;7.91;100;95572.81;;;;
2019/05/23 03:10:08;;;;;;;27.65;18.45;;;;;;;7.91;100;95572.81;;;;
2019/05/23 03:11:09;;;;;;;27.65;18.45;;;;;;;7.91;100;95572.81;;;;
2019/05/23 03:12:15;;;;;;;27.65;18.45;;;;;;;7.91;100;95572.81;;;;
2019/05/23 03:13:18;;;;;;;30.85;19.3;;;;;;;7.91;100;95580.08;;;;
2019/05/23 03:14:22;;;;;;;30.85;19.3;;;;;;;7.91;100;95580.08;;;;
2019/05/23 03:15:23;;;;;;;30.85;19.3;;;;;;;7.91;100;95580.08;;;;
2019/05/23 03:16:26;;;;;;;30.85;19.3;;;;;;;7.91;100;95580.08;;;;
2019/05/23 03:17:28;;;;;;;30.85;19.3;;;;;;;7.91;100;95580.08;;;;
2019/05/23 03:18:30;;;;;;;30.85;19.3;;;;;;;7.91;100;95580.08;;;;
2019/05/23 03:19:38;;;;;;;30.85;19.3;;;;;;;7.91;100;95580.08;;;;
2019/05/23 03:20:42;;;;;;;30.85;19.3;;;;;;;7.91;100;95580.08;;;;
2019/05/23 03:21:44;;;;;;;30.85;19.3;;;;;;;7.91;100;95580.08;;;;
2019/05/23 03:22:47;;;;;;;30.85;19.3;;;;;;;7.91;100;95580.08;;;;
2019/05/23 03:23:52;;;;;;;27.45;17.75;;;;;;;7.77;100;95583.31;;;;
2019/05/23 03:24:53;;;;;;;27.45;17.75;;;;;;;7.77;100;95583.31;;;;
2019/05/23 03:25:57;;;;;;;27.45;17.75;;;;;;;7.77;100;95583.31;;;;
2019/05/23 03:27:53;;;;;;;27.45;17.75;;;;;;;7.77;100;95583.31;;;;
2019/05/23 03:28:55;;;;;;;27.45;17.75;;;;;;;7.77;100;95583.31;;;;
2019/05/23 03:29:56;;;;;;;27.45;17.75;;;;;;;7.77;100;95583.31;;;;
2019/05/23 03:31:02;;;;;;;27.45;17.75;;;;;;;7.77;100;95583.31;;;;
2019/05/23 03:32:12;;;;;;;27.45;17.75;;;;;;;7.77;100;95583.31;;;;
2019/05/23 03:33:17;;;;;;;27.45;17.75;;;;;;;7.77;100;95583.31;;;;
2019/05/23 03:34:20;;;;;;;27.25;17.85;;;;;;;7.71;100;95576.62;;;;
2019/05/23 03:35:25;;;;;;;27.25;17.85;;;;;;;7.71;100;95576.62;;;;
2019/05/23 03:36:27;;;;;;;27.25;17.85;;;;;;;7.71;100;95576.62;;;;
2019/05/23 03:37:28;;;;;;;27.25;17.85;;;;;;;7.71;100;95576.62;;;;
2019/05/23 03:38:29;;;;;;;27.25;17.85;;;;;;;7.71;100;95576.62;;;;
2019/05/23 03:39:30;;;;;;;27.25;17.85;;;;;;;7.71;100;95576.62;;;;
2019/05/23 03:40:32;;;;;;;27.25;17.85;;;;;;;7.71;100;95576.62;;;;
2019/05/23 03:41:33;;;;;;;27.25;17.85;;;;;;;7.71;100;95576.62;;;;
2019/05/23 03:42:35;;;;;;;27.25;17.85;;;;;;;7.71;100;95576.62;;;;
2019/05/23 03:43:37;;;;;;;27.25;17.85;;;;;;;7.71;100;95576.62;;;;
2019/05/23 03:44:39;;;;;;;27.25;17.85;;;;;;;7.71;100;95576.62;;;;
2019/05/23 03:45:44;;;;;;;25.8;17.8;;;;;;;7.62;100;95573.85;;;;
2019/05/23 03:46:46;;;;;;;25.8;17.8;;;;;;;7.62;100;95573.85;;;;
2019/05/23 03:47:48;;;;;;;25.8;17.8;;;;;;;7.62;100;95573.85;;;;
2019/05/23 03:48:50;;;;;;;25.8;17.8;;;;;;;7.62;100;95573.85;;;;
2019/05/23 03:49:51;;;;;;;25.8;17.8;;;;;;;7.62;100;95573.85;;;;
2019/05/23 03:50:54;;;;;;;25.8;17.8;;;;;;;7.62;100;95573.85;;;;
2019/05/23 03:51:55;;;;;;;25.8;17.8;;;;;;;7.62;100;95573.85;;;;
2019/05/23 03:52:57;;;;;;;25.8;17.8;;;;;;;7.62;100;95573.85;;;;
2019/05/23 03:53:58;;;;;;;25.8;17.8;;;;;;;7.62;100;95573.85;;;;
2019/05/23 03:55:04;;;;;;;25.8;17.8;;;;;;;7.62;100;95573.85;;;;
2019/05/23 03:56:05;;;;;;;24.55;15.9;;;;;;;7.61;100;95573.56;;;;
2019/05/23 03:57:08;;;;;;;24.55;15.9;;;;;;;7.61;100;95573.56;;;;
2019/05/23 03:58:11;;;;;;;24.55;15.9;;;;;;;7.61;100;95573.56;;;;
2019/05/23 03:59:13;;;;;;;24.55;15.9;;;;;;;7.61;100;95573.56;;;;
2019/05/23 04:00:17;;;;;;;24.55;15.9;;;;;;;7.61;100;95573.56;;;;
2019/05/23 04:01:21;;;;;;;24.55;15.9;;;;;;;7.61;100;95573.56;;;;
2019/05/23 04:02:22;;;;;;;24.55;15.9;;;;;;;7.61;100;95573.56;;;;
2019/05/23 04:03:26;;;;;;;24.55;15.9;;;;;;;7.61;100;95573.56;;;;
2019/05/23 04:04:27;;;;;;;24.55;15.9;;;;;;;7.61;100;95573.56;;;;
2019/05/23 04:05:28;;;;;;;24.55;15.9;;;;;;;7.61;100;95573.56;;;;
2019/05/23 04:06:30;;;;;;;23.05;15.95;;;;;;;7.58;100;95583.78;;;;
2019/05/23 04:07:31;;;;;;;23.05;15.95;;;;;;;7.58;100;95583.78;;;;
2019/05/23 04:08:32;;;;;;;23.05;15.95;;;;;;;7.58;100;95583.78;;;;
2019/05/23 04:09:34;;;;;;;23.05;15.95;;;;;;;7.58;100;95583.78;;;;
2019/05/23 04:10:35;;;;;;;23.05;15.95;;;;;;;7.58;100;95583.78;;;;
2019/05/23 04:11:36;;;;;;;23.05;15.95;;;;;;;7.58;100;95583.78;;;;
2019/05/23 04:12:38;;;;;;;23.05;15.95;;;;;;;7.58;100;95583.78;;;;
2019/05/23 04:13:39;;;;;;;23.05;15.95;;;;;;;7.58;100;95583.78;;;;
2019/05/23 04:14:40;;;;;;;23.05;15.95;;;;;;;7.58;100;95583.78;;;;
2019/05/23 04:15:41;;;;;;;23.05;15.95;;;;;;;7.58;100;95583.78;;;;
2019/05/23 04:16:42;;;;;;;20.35;14.55;;;;;;;7.67;100;95583.86;;;;
2019/05/23 04:17:43;;;;;;;20.35;14.55;;;;;;;7.67;100;95583.86;;;;
2019/05/23 04:18:45;;;;;;;20.35;14.55;;;;;;;7.67;100;95583.86;;;;
2019/05/23 04:19:47;;;;;;;20.35;14.55;;;;;;;7.67;100;95583.86;;;;
2019/05/23 04:20:48;;;;;;;20.35;14.55;;;;;;;7.67;100;95583.86;;;;
2019/05/23 04:21:49;;;;;;;20.35;14.55;;;;;;;7.67;100;95583.86;;;;
2019/05/23 04:22:51;;;;;;;20.35;14.55;;;;;;;7.67;100;95583.86;;;;
2019/05/23 04:23:52;;;;;;;20.35;14.55;;;;;;;7.67;100;95583.86;;;;
2019/05/23 04:24:53;;;;;;;20.35;14.55;;;;;;;7.67;100;95583.86;;;;
2019/05/23 04:25:54;;;;;;;20.35;14.55;;;;;;;7.67;100;95583.86;;;;
2019/05/23 04:26:55;;;;;;;20.35;14.55;;;;;;;7.67;100;95583.86;;;;
2019/05/23 04:27:57;;;;;;;22.35;15.4;;;;;;;7.67;100;95587.06;;;;
2019/05/23 04:28:58;;;;;;;22.35;15.4;;;;;;;7.67;100;95587.06;;;;
2019/05/23 04:29:59;;;;;;;22.35;15.4;;;;;;;7.67;100;95587.06;;;;
2019/05/23 04:31:00;;;;;;;22.35;15.4;;;;;;;7.67;100;95587.06;;;;
2019/05/23 04:32:02;;;;;;;22.35;15.4;;;;;;;7.67;100;95587.06;;;;
2019/05/23 04:33:03;;;;;;;22.35;15.4;;;;;;;7.67;100;95587.06;;;;
2019/05/23 04:34:04;;;;;;;22.35;15.4;;;;;;;7.67;100;95587.06;;;;
2019/05/23 04:35:06;;;;;;;22.35;15.4;;;;;;;7.67;100;95587.06;;;;
2019/05/23 04:36:07;;;;;;;22.35;15.4;;;;;;;7.67;100;95587.06;;;;
2019/05/23 04:37:08;;;;;;;22.35;15.4;;;;;;;7.67;100;95587.06;;;;
2019/05/23 04:38:09;;;;;;;21.65;14.8;;;;;;;7.76;100;95594.7;;;;
2019/05/23 04:39:10;;;;;;;21.65;14.8;;;;;;;7.76;100;95594.7;;;;
2019/05/23 04:40:12;;;;;;;21.65;14.8;;;;;;;7.76;100;95594.7;;;;
2019/05/23 04:41:13;;;;;;;21.65;14.8;;;;;;;7.76;100;95594.7;;;;
2019/05/23 04:42:14;;;;;;;21.65;14.8;;;;;;;7.76;100;95594.7;;;;
2019/05/23 04:43:16;;;;;;;21.65;14.8;;;;;;;7.76;100;95594.7;;;;
2019/05/23 04:44:17;;;;;;;21.65;14.8;;;;;;;7.76;100;95594.7;;;;
2019/05/23 04:45:18;;;;;;;21.65;14.8;;;;;;;7.76;100;95594.7;;;;
2019/05/23 04:46:20;;;;;;;21.65;14.8;;;;;;;7.76;100;95594.7;;;;
2019/05/23 04:47:22;;;;;;;21.65;14.8;;;;;;;7.76;100;95594.7;;;;
2019/05/23 04:48:23;;;;;;;21.65;14.8;;;;;;;7.76;100;95594.7;;;;
2019/05/23 04:49:24;;;;;;;23.25;15.95;;;;;;;8.01;100;95597.92;;;;
2019/05/23 04:50:29;;;;;;;23.25;15.95;;;;;;;8.01;100;95597.92;;;;
2019/05/23 04:51:30;;;;;;;23.25;15.95;;;;;;;8.01;100;95597.92;;;;
2019/05/23 04:52:32;;;;;;;23.25;15.95;;;;;;;8.01;100;95597.92;;;;
2019/05/23 04:53:34;;;;;;;23.25;15.95;;;;;;;8.01;100;95597.92;;;;
2019/05/23 04:54:35;;;;;;;23.25;15.95;;;;;;;8.01;100;95597.92;;;;
2019/05/23 04:55:37;;;;;;;23.25;15.95;;;;;;;8.01;100;95597.92;;;;
2019/05/23 04:56:39;;;;;;;23.25;15.95;;;;;;;8.01;100;95597.92;;;;
2019/05/23 04:57:40;;;;;;;23.25;15.95;;;;;;;8.01;100;95597.92;;;;
2019/05/23 04:58:43;;;;;;;23.25;15.95;;;;;;;8.01;100;95597.92;;;;
2019/05/23 04:59:44;;;;;;;23.85;17.35;;;;;;;8.58;100;95601.92;;;;
2019/05/23 05:00:45;;;;;;;23.85;17.35;;;;;;;8.58;100;95601.92;;;;
2019/05/23 05:01:47;;;;;;;23.85;17.35;;;;;;;8.58;100;95601.92;;;;
2019/05/23 05:02:48;;;;;;;23.85;17.35;;;;;;;8.58;100;95601.92;;;;
2019/05/23 05:03:49;;;;;;;23.85;17.35;;;;;;;8.58;100;95601.92;;;;
2019/05/23 05:04:50;;;;;;;23.85;17.35;;;;;;;8.58;100;95601.92;;;;
2019/05/23 05:05:52;;;;;;;23.85;17.35;;;;;;;8.58;100;95601.92;;;;
2019/05/23 05:06:53;;;;;;;23.85;17.35;;;;;;;8.58;100;95601.92;;;;
2019/05/23 05:07:55;;;;;;;23.85;17.35;;;;;;;8.58;100;95601.92;;;;
2019/05/23 05:08:56;;;;;;;23.85;17.35;;;;;;;8.58;100;95601.92;;;;
2019/05/23 05:09:57;;;;;;;34.25;21.95;;;;;;;9.08;100;95604.72;;;;
2019/05/23 05:10:59;;;;;;;34.25;21.95;;;;;;;9.08;100;95604.72;;;;
2019/05/23 05:12:00;;;;;;;34.25;21.95;;;;;;;9.08;100;95604.72;;;;
2019/05/23 05:13:01;;;;;;;34.25;21.95;;;;;;;9.08;100;95604.72;;;;
2019/05/23 05:14:04;;;;;;;34.25;21.95;;;;;;;9.08;100;95604.72;;;;
2019/05/23 05:15:05;;;;;;;34.25;21.95;;;;;;;9.08;100;95604.72;;;;
2019/05/23 05:16:06;;;;;;;34.25;21.95;;;;;;;9.08;100;95604.72;;;;
2019/05/23 05:17:10;;;;;;;34.25;21.95;;;;;;;9.08;100;95604.72;;;;
2019/05/23 05:18:11;;;;;;;34.25;21.95;;;;;;;9.08;100;95604.72;;;;
2019/05/23 05:19:13;;;;;;;34.25;21.95;;;;;;;9.08;100;95604.72;;;;
2019/05/23 05:20:14;;;;;;;32.75;23;;;;;;;9.61;100;95608.59;;;;
2019/05/23 05:21:15;;;;;;;32.75;23;;;;;;;9.61;100;95608.59;;;;
2019/05/23 05:22:16;;;;;;;32.75;23;;;;;;;9.61;100;95608.59;;;;
2019/05/23 05:23:18;;;;;;;32.75;23;;;;;;;9.61;100;95608.59;;;;
2019/05/23 05:24:19;;;;;;;32.75;23;;;;;;;9.61;100;95608.59;;;;
2019/05/23 05:25:20;;;;;;;32.75;23;;;;;;;9.61;100;95608.59;;;;
2019/05/23 05:26:22;;;;;;;32.75;23;;;;;;;9.61;100;95608.59;;;;
2019/05/23 05:27:23;;;;;;;32.75;23;;;;;;;9.61;100;95608.59;;;;
2019/05/23 05:28:25;;;;;;;32.75;23;;;;;;;9.61;100;95608.59;;;;
2019/05/23 05:29:30;;;;;;;32.75;23;;;;;;;9.61;100;95608.59;;;;
2019/05/23 05:30:31;;;;;;;32.75;23;;;;;;;9.61;100;95608.59;;;;
2019/05/23 05:31:32;;;;;;;28.8;19.75;;;;;;;9.85;100;95605.05;;;;
2019/05/23 05:32:33;;;;;;;28.8;19.75;;;;;;;9.85;100;95605.05;;;;
2019/05/23 05:33:35;;;;;;;28.8;19.75;;;;;;;9.85;100;95605.05;;;;
2019/05/23 05:34:36;;;;;;;28.8;19.75;;;;;;;9.85;100;95605.05;;;;
2019/05/23 05:35:37;;;;;;;28.8;19.75;;;;;;;9.85;100;95605.05;;;;
2019/05/23 05:36:39;;;;;;;28.8;19.75;;;;;;;9.85;100;95605.05;;;;
2019/05/23 05:37:40;;;;;;;28.8;19.75;;;;;;;9.85;100;95605.05;;;;
2019/05/23 05:38:42;;;;;;;28.8;19.75;;;;;;;9.85;100;95605.05;;;;
2019/05/23 05:39:43;;;;;;;28.8;19.75;;;;;;;9.85;100;95605.05;;;;
2019/05/23 05:40:45;;;;;;;28.8;19.75;;;;;;;9.85;100;95605.05;;;;
2019/05/23 05:41:46;;;;;;;30.2;19.85;;;;;;;10.1;100;95611.24;;;;
2019/05/23 05:42:48;;;;;;;30.2;19.85;;;;;;;10.1;100;95611.24;;;;
2019/05/23 05:43:49;;;;;;;30.2;19.85;;;;;;;10.1;100;95611.24;;;;
2019/05/23 05:44:50;;;;;;;30.2;19.85;;;;;;;10.1;100;95611.24;;;;
2019/05/23 05:45:51;;;;;;;30.2;19.85;;;;;;;10.1;100;95611.24;;;;
2019/05/23 05:46:52;;;;;;;30.2;19.85;;;;;;;10.1;100;95611.24;;;;
2019/05/23 05:47:54;;;;;;;30.2;19.85;;;;;;;10.1;100;95611.24;;;;
2019/05/23 05:48:55;;;;;;;30.2;19.85;;;;;;;10.1;100;95611.24;;;;
2019/05/23 05:49:56;;;;;;;30.2;19.85;;;;;;;10.1;100;95611.24;;;;
2019/05/23 05:50:57;;;;;;;30.2;19.85;;;;;;;10.1;100;95611.24;;;;
2019/05/23 05:51:59;;;;;;;26.75;19.35;;;;;;;10.41;100;95615.65;;;;
2019/05/23 05:53:00;;;;;;;26.75;19.35;;;;;;;10.41;100;95615.65;;;;
2019/05/23 05:54:01;;;;;;;26.75;19.35;;;;;;;10.41;100;95615.65;;;;
2019/05/23 05:55:02;;;;;;;26.75;19.35;;;;;;;10.41;100;95615.65;;;;
2019/05/23 05:56:04;;;;;;;26.75;19.35;;;;;;;10.41;100;95615.65;;;;
2019/05/23 05:57:05;;;;;;;26.75;19.35;;;;;;;10.41;100;95615.65;;;;
2019/05/23 05:58:06;;;;;;;26.75;19.35;;;;;;;10.41;100;95615.65;;;;
2019/05/23 05:59:07;;;;;;;26.75;19.35;;;;;;;10.41;100;95615.65;;;;
2019/05/23 06:00:23;;;;;;;26.75;19.35;;;;;;;10.41;100;95615.65;;;;
2019/05/23 06:01:29;;;;;;;26.75;19.35;;;;;;;10.41;100;95615.65;;;;
2019/05/23 06:02:31;;;;;;;26.75;19.35;;;;;;;10.41;100;95615.65;;;;
2019/05/23 06:03:32;;;;;;;27.4;19.2;;;;;;;10.91;100;95620.58;;;;
2019/05/23 06:04:33;;;;;;;27.4;19.2;;;;;;;10.91;100;95620.58;;;;
2019/05/23 06:05:47;;;;;;;27.4;19.2;;;;;;;10.91;100;95620.58;;;;
2019/05/23 06:08:00;;;;;;;27.4;19.2;;;;;;;10.91;100;95620.58;;;;
2019/05/23 06:09:09;;;;;;;27.4;19.2;;;;;;;10.91;100;95620.58;;;;
2019/05/23 06:10:11;;;;;;;27.4;19.2;;;;;;;10.91;100;95620.58;;;;
2019/05/23 06:11:13;;;;;;;27.4;19.2;;;;;;;10.91;100;95620.58;;;;
2019/05/23 06:12:15;;;;;;;27.4;19.2;;;;;;;10.91;100;95620.58;;;;
2019/05/23 06:13:16;;;;;;;22.6;16.85;;;;;;;11.5;100;95620.17;;;;
2019/05/23 06:14:17;;;;;;;22.6;16.85;;;;;;;11.5;100;95620.17;;;;
2019/05/23 06:15:18;;;;;;;22.6;16.85;;;;;;;11.5;100;95620.17;;;;
2019/05/23 06:16:19;;;;;;;22.6;16.85;;;;;;;11.5;100;95620.17;;;;
2019/05/23 06:17:21;;;;;;;22.6;16.85;;;;;;;11.5;100;95620.17;;;;
2019/05/23 06:18:22;;;;;;;22.6;16.85;;;;;;;11.5;100;95620.17;;;;
2019/05/23 06:19:23;;;;;;;22.6;16.85;;;;;;;11.5;100;95620.17;;;;
2019/05/23 06:20:24;;;;;;;22.6;16.85;;;;;;;11.5;100;95620.17;;;;
2019/05/23 06:21:27;;;;;;;22.6;16.85;;;;;;;11.5;100;95620.17;;;;
2019/05/23 06:22:29;;;;;;;22.6;16.85;;;;;;;11.5;100;95620.17;;;;
2019/05/23 06:23:31;;;;;;;22.6;16.85;;;;;;;11.5;100;95620.17;;;;
2019/05/23 06:24:33;;;;;;;21.7;16.75;;;;;;;12.2;100;95613.73;;;;
2019/05/23 06:25:34;;;;;;;21.7;16.75;;;;;;;12.2;100;95613.73;;;;
2019/05/23 06:26:35;;;;;;;21.7;16.75;;;;;;;12.2;100;95613.73;;;;
2019/05/23 06:27:36;;;;;;;21.7;16.75;;;;;;;12.2;100;95613.73;;;;
2019/05/23 06:28:37;;;;;;;21.7;16.75;;;;;;;12.2;100;95613.73;;;;
2019/05/23 06:29:39;;;;;;;21.7;16.75;;;;;;;12.2;100;95613.73;;;;
2019/05/23 06:30:40;;;;;;;21.7;16.75;;;;;;;12.2;100;95613.73;;;;
2019/05/23 06:31:42;;;;;;;21.7;16.75;;;;;;;12.2;100;95613.73;;;;
2019/05/23 06:32:43;;;;;;;21.7;16.75;;;;;;;12.2;100;95613.73;;;;